Time;durP1;ratioP1;P1;durP2;ratioP2;P2;SDS_P1;SDS_P2;PMS_P1;PMS_P2;Temp;Humidity;BMP_temperature;BMP_pressure;BME280_temperature;BME280_humidity;BME280_pressure;Samples;Min_cycle;Max_cycle;Signal;HPM_P1;HPM_P2
2022/10/29 00:00:00;;;;;;;17.50;7.85;;;16.60;99.90;;;;;;5091637;28;20224;-50
2022/10/29 00:02:25;;;;;;;17.45;7.53;;;16.60;99.90;;;;;;5091808;28;20176;-50
2022/10/29 00:04:51;;;;;;;15.10;7.35;;;16.70;99.90;;;;;;5092049;28;20169;-50
2022/10/29 00:07:16;;;;;;;12.68;5.47;;;16.70;99.90;;;;;;5091746;28;20534;-50
2022/10/29 00:09:42;;;;;;;13.60;7.30;;;16.70;99.90;;;;;;5091662;28;20271;-50
2022/10/29 00:12:08;;;;;;;11.45;6.50;;;16.70;99.90;;;;;;5091973;28;20228;-50
2022/10/29 00:14:33;;;;;;;15.45;5.65;;;16.60;99.90;;;;;;5091686;28;20169;-50
2022/10/29 00:16:59;;;;;;;13.07;5.88;;;16.60;99.90;;;;;;5091622;28;20173;-50
2022/10/29 00:19:26;;;;;;;15.85;6.68;;;16.50;99.90;;;;;;5091836;28;20169;-50
2022/10/29 00:21:52;;;;;;;16.02;5.90;;;16.60;99.90;;;;;;5091557;28;20180;-51
2022/10/29 00:24:17;;;;;;;13.45;5.65;;;16.60;99.90;;;;;;5091669;28;20169;-50
2022/10/29 00:26:43;;;;;;;16.30;6.22;;;16.60;99.90;;;;;;5091929;28;20169;-50
2022/10/29 00:29:08;;;;;;;11.82;6.65;;;16.60;99.90;;;;;;5091940;28;20498;-50
2022/10/29 00:31:34;;;;;;;15.02;6.20;;;16.50;99.90;;;;;;5091722;28;20170;-50
2022/10/29 00:33:59;;;;;;;17.67;5.88;;;16.50;99.90;;;;;;5091479;28;20216;-50
2022/10/29 00:36:28;;;;;;;18.58;6.38;;;16.50;99.90;;;;;;5091524;28;20171;-50
2022/10/29 00:38:55;;;;;;;15.05;6.38;;;16.50;99.90;;;;;;5094559;28;20264;-50
2022/10/29 00:41:25;;;;;;;14.18;7.07;;;16.40;99.90;;;;;;5095695;28;20196;-50
2022/10/29 00:44:12;;;;;;;12.73;5.90;;;16.40;99.90;;;;;;5077143;28;20161;-50
2022/10/29 00:46:39;;;;;;;10.77;5.60;;;16.40;99.90;;;;;;5095411;28;20177;-50
2022/10/29 00:49:04;;;;;;;14.98;5.82;;;16.30;99.90;;;;;;5095236;28;20310;-50
2022/10/29 00:51:31;;;;;;;14.60;7.65;;;16.40;99.90;;;;;;5076945;28;20652;-49
2022/10/29 00:54:06;;;;;;;16.25;6.38;;;16.30;99.90;;;;;;5095038;28;20240;-50
2022/10/29 00:56:36;;;;;;;18.48;7.00;;;16.40;99.90;;;;;;5095256;28;20173;-49
2022/10/29 00:59:04;;;;;;;20.92;6.30;;;16.40;99.90;;;;;;5095013;28;20630;-50
2022/10/29 01:01:30;;;;;;;18.45;7.57;;;16.30;99.90;;;;;;5094956;28;20267;-50
2022/10/29 01:03:58;;;;;;;15.27;6.93;;;16.30;99.90;;;;;;5094815;28;20201;-50
2022/10/29 01:06:27;;;;;;;15.00;6.82;;;16.30;99.90;;;;;;5094806;28;20245;-50
2022/10/29 01:08:52;;;;;;;18.05;5.95;;;16.40;99.90;;;;;;5094608;28;20165;-50
2022/10/29 01:11:39;;;;;;;15.68;6.38;;;16.40;99.90;;;;;;5095078;28;20260;-50
2022/10/29 01:14:23;;;;;;;9.57;5.65;;;16.30;99.90;;;;;;5076819;28;20552;-51
2022/10/29 01:17:26;;;;;;;16.10;6.57;;;16.30;99.90;;;;;;5094687;28;20165;-50
2022/10/29 01:20:10;;;;;;;17.27;7.10;;;16.20;99.90;;;;;;5094639;28;20165;-50
2022/10/29 01:22:43;;;;;;;18.15;6.32;;;16.20;99.90;;;;;;5094931;28;20176;-50
2022/10/29 01:25:20;;;;;;;12.65;6.57;;;16.20;99.90;;;;;;5094890;28;20200;-51
2022/10/29 01:28:02;;;;;;;8.43;6.10;;;16.20;99.90;;;;;;5094480;28;20168;-51
2022/10/29 01:30:52;;;;;;;21.05;6.63;;;16.10;99.90;;;;;;5094603;28;20214;-50
2022/10/29 01:33:23;;;;;;;15.60;5.97;;;16.00;99.90;;;;;;5094290;28;20204;-50
2022/10/29 01:35:57;;;;;;;12.77;6.25;;;16.10;99.90;;;;;;5094294;28;20555;-50
2022/10/29 01:38:53;;;;;;;17.63;5.18;;;16.10;99.90;;;;;;5094186;28;20172;-50
2022/10/29 01:41:32;;;;;;;16.15;6.72;;;16.00;99.90;;;;;;5094209;28;20559;-50
2022/10/29 01:44:07;;;;;;;10.07;5.55;;;16.10;99.90;;;;;;5094175;28;20191;-50
2022/10/29 01:46:41;;;;;;;14.80;6.15;;;16.00;99.90;;;;;;5094081;28;20214;-50
2022/10/29 01:49:16;;;;;;;20.40;7.32;;;16.10;99.90;;;;;;5094414;28;20185;-50
2022/10/29 01:51:42;;;;;;;14.00;6.65;;;16.00;99.90;;;;;;5093886;28;20234;-50
2022/10/29 01:54:10;;;;;;;18.92;6.95;;;16.10;99.90;;;;;;5094279;28;20593;-50
2022/10/29 01:56:36;;;;;;;13.57;6.97;;;15.80;99.90;;;;;;5094287;28;20166;-50
2022/10/29 01:59:10;;;;;;;15.13;6.47;;;16.00;99.90;;;;;;5093825;28;20166;-50
2022/10/29 02:02:08;;;;;;;17.65;6.63;;;16.00;99.90;;;;;;5094208;28;20656;-52
2022/10/29 02:04:36;;;;;;;12.25;6.45;;;16.00;99.90;;;;;;5094004;28;20165;-51
2022/10/29 02:07:14;;;;;;;12.95;6.53;;;16.10;99.90;;;;;;5093792;28;20230;-51
2022/10/29 02:10:12;;;;;;;15.10;6.32;;;16.00;99.90;;;;;;5093834;28;20177;-51
2022/10/29 02:12:50;;;;;;;14.65;6.72;;;15.90;99.90;;;;;;5093862;28;20212;-51
2022/10/29 02:15:19;;;;;;;11.93;6.43;;;15.80;99.90;;;;;;5093482;28;20167;-51
2022/10/29 02:17:45;;;;;;;10.80;5.80;;;15.90;99.90;;;;;;5093543;28;20653;-51
2022/10/29 02:20:12;;;;;;;14.27;6.75;;;15.80;99.90;;;;;;5093393;28;20278;-50
2022/10/29 02:22:38;;;;;;;19.40;6.38;;;15.80;99.90;;;;;;5093655;28;20177;-51
2022/10/29 02:25:06;;;;;;;13.00;6.05;;;15.80;99.90;;;;;;5093364;28;20157;-51
2022/10/29 02:27:33;;;;;;;16.00;6.60;;;15.90;99.90;;;;;;5093289;28;20168;-51
2022/10/29 02:29:58;;;;;;;10.95;6.82;;;15.90;99.90;;;;;;5093180;28;20176;-51
2022/10/29 02:32:24;;;;;;;10.38;6.07;;;15.90;99.90;;;;;;5093146;28;20201;-51
2022/10/29 02:34:49;;;;;;;11.13;6.22;;;15.90;99.90;;;;;;5093169;28;20169;-50
2022/10/29 02:37:15;;;;;;;21.17;7.43;;;15.80;99.90;;;;;;5093149;28;20193;-50
2022/10/29 02:39:40;;;;;;;12.70;6.00;;;15.80;99.90;;;;;;5093023;28;20643;-51
2022/10/29 02:42:06;;;;;;;14.05;6.18;;;15.70;99.90;;;;;;5093453;28;20633;-50
2022/10/29 02:44:31;;;;;;;12.15;6.07;;;15.70;99.90;;;;;;5093294;28;20660;-50
2022/10/29 02:46:57;;;;;;;13.27;6.00;;;15.70;99.90;;;;;;5093034;28;20231;-50
2022/10/29 02:49:23;;;;;;;12.68;6.03;;;15.70;99.90;;;;;;5092983;28;20165;-51
2022/10/29 02:51:49;;;;;;;9.65;5.85;;;15.60;99.90;;;;;;5092762;28;20180;-51
2022/10/29 02:54:15;;;;;;;14.02;6.07;;;15.60;99.90;;;;;;5093015;28;20218;-50
2022/10/29 02:56:40;;;;;;;14.50;5.30;;;15.60;99.90;;;;;;5092776;28;20161;-50
2022/10/29 02:59:07;;;;;;;8.98;5.63;;;15.70;99.90;;;;;;5092874;28;20238;-50
2022/10/29 03:01:32;;;;;;;8.35;5.22;;;15.60;99.90;;;;;;5092281;28;20611;-50
2022/10/29 03:03:58;;;;;;;12.02;5.93;;;15.50;99.90;;;;;;5092647;28;20161;-51
2022/10/29 03:06:23;;;;;;;13.77;6.93;;;15.60;99.90;;;;;;5092634;28;20176;-51
2022/10/29 03:08:49;;;;;;;11.77;6.30;;;15.60;99.90;;;;;;5092633;28;20161;-51
2022/10/29 03:11:15;;;;;;;12.70;6.22;;;15.60;99.90;;;;;;5092309;28;20169;-50
2022/10/29 03:13:40;;;;;;;16.73;5.80;;;15.60;99.90;;;;;;5092137;28;20208;-50
2022/10/29 03:16:06;;;;;;;21.48;7.95;;;15.70;99.90;;;;;;5093136;28;20176;-50
2022/10/29 03:18:31;;;;;;;12.05;6.35;;;15.60;99.90;;;;;;5092289;28;20178;-51
2022/10/29 03:20:57;;;;;;;9.60;5.90;;;15.60;99.90;;;;;;5092402;28;20167;-49
2022/10/29 03:23:23;;;;;;;10.65;5.88;;;15.60;99.90;;;;;;5092355;28;20172;-51
2022/10/29 03:25:51;;;;;;;17.75;5.90;;;15.60;99.90;;;;;;5092263;28;20210;-50
2022/10/29 03:28:17;;;;;;;10.63;6.13;;;15.60;99.90;;;;;;5092488;28;20177;-50
2022/10/29 03:30:42;;;;;;;13.68;6.22;;;15.60;99.90;;;;;;5092149;28;20172;-50
2022/10/29 03:33:08;;;;;;;16.88;6.10;;;15.60;99.90;;;;;;5092409;28;20229;-50
2022/10/29 03:35:33;;;;;;;17.40;7.07;;;15.60;99.90;;;;;;5092109;28;20210;-50
2022/10/29 03:37:59;;;;;;;17.17;6.78;;;15.40;99.90;;;;;;5073958;28;20173;-50
2022/10/29 03:40:24;;;;;;;15.68;6.80;;;15.40;99.90;;;;;;5092110;28;20664;-50
2022/10/29 03:42:50;;;;;;;10.65;6.22;;;15.40;99.90;;;;;;5091984;28;20578;-50
2022/10/29 03:47:41;;;;;;;12.77;6.32;;;15.40;99.90;;;;;;5091849;28;20189;-50
2022/10/29 03:50:07;;;;;;;15.60;6.93;;;15.40;99.90;;;;;;5091663;28;20640;-50
2022/10/29 03:52:33;;;;;;;17.35;6.70;;;15.40;99.90;;;;;;5091598;28;20208;-50
2022/10/29 03:54:58;;;;;;;11.57;6.15;;;15.40;99.90;;;;;;5091500;28;20548;-50
2022/10/29 03:57:24;;;;;;;12.60;6.53;;;15.40;99.90;;;;;;5091808;28;20218;-50
2022/10/29 03:59:49;;;;;;;14.95;6.35;;;15.40;99.90;;;;;;5091731;28;20258;-50
2022/10/29 04:02:15;;;;;;;16.33;6.88;;;15.40;99.90;;;;;;5091799;28;20248;-51
2022/10/29 04:04:40;;;;;;;16.80;7.10;;;15.40;99.90;;;;;;5091768;28;20165;-50
2022/10/29 04:07:06;;;;;;;17.23;7.50;;;15.40;99.90;;;;;;5092111;28;20169;-50
2022/10/29 04:09:31;;;;;;;17.25;7.63;;;15.40;99.90;;;;;;5091781;28;20498;-50
2022/10/29 04:11:57;;;;;;;14.90;6.55;;;15.40;99.90;;;;;;5093403;28;20165;-50
2022/10/29 04:14:22;;;;;;;17.92;6.60;;;15.40;99.90;;;;;;5077744;28;20173;-50
2022/10/29 04:16:48;;;;;;;15.68;6.97;;;15.30;99.90;;;;;;5095968;28;20644;-50
2022/10/29 04:19:13;;;;;;;14.85;7.40;;;15.30;99.90;;;;;;5095810;28;20177;-50
2022/10/29 04:21:39;;;;;;;13.27;6.63;;;15.40;99.90;;;;;;5096334;28;20165;-50
2022/10/29 04:24:05;;;;;;;19.58;7.57;;;15.30;99.90;;;;;;5096092;28;20559;-50
2022/10/29 04:26:30;;;;;;;16.88;7.32;;;15.30;99.90;;;;;;5095714;28;20170;-50
2022/10/29 04:28:56;;;;;;;11.38;6.35;;;15.40;99.90;;;;;;5095607;28;20521;-50
2022/10/29 04:31:22;;;;;;;12.70;6.43;;;15.40;99.90;;;;;;5095619;28;20169;-50
2022/10/29 04:33:47;;;;;;;15.38;6.85;;;15.40;99.90;;;;;;5095355;28;20204;-50
2022/10/29 04:36:13;;;;;;;14.32;6.32;;;15.40;99.90;;;;;;5095465;28;20211;-49
2022/10/29 04:38:38;;;;;;;14.85;7.05;;;15.40;99.90;;;;;;5095811;28;20216;-49
2022/10/29 04:41:04;;;;;;;14.50;7.63;;;15.40;99.90;;;;;;5095406;28;20529;-50
2022/10/29 04:43:30;;;;;;;17.95;7.80;;;15.20;99.90;;;;;;5095358;28;20200;-50
2022/10/29 04:45:57;;;;;;;20.45;7.78;;;15.30;99.90;;;;;;5095350;28;20235;-50
2022/10/29 04:48:24;;;;;;;17.25;7.18;;;15.30;99.90;;;;;;5095328;28;20198;-50
2022/10/29 04:50:51;;;;;;;23.27;8.27;;;15.40;99.90;;;;;;5095233;28;20158;-50
2022/10/29 04:53:16;;;;;;;23.17;7.75;;;15.40;99.90;;;;;;5095018;28;20676;-50
2022/10/29 04:55:43;;;;;;;19.50;8.30;;;15.30;99.90;;;;;;5095160;28;20172;-51
2022/10/29 04:58:13;;;;;;;15.43;8.73;;;15.40;99.90;;;;;;5095399;28;20169;-50
2022/10/29 05:00:39;;;;;;;15.30;8.00;;;15.40;99.90;;;;;;5095258;28;20217;-50
2022/10/29 05:03:05;;;;;;;21.67;8.13;;;15.40;99.90;;;;;;5095433;28;20176;-50
2022/10/29 05:05:30;;;;;;;17.42;7.22;;;15.40;99.90;;;;;;5094909;28;20244;-50
2022/10/29 05:08:01;;;;;;;20.80;8.02;;;15.40;99.90;;;;;;5094865;28;20655;-50
2022/10/29 05:10:29;;;;;;;15.80;8.10;;;15.50;99.90;;;;;;5094769;28;20656;-50
2022/10/29 05:12:59;;;;;;;17.73;7.78;;;15.40;99.90;;;;;;5094272;28;20228;-50
2022/10/29 05:15:24;;;;;;;17.92;8.70;;;15.50;99.90;;;;;;5095060;28;20169;-50
2022/10/29 05:17:50;;;;;;;22.20;8.25;;;15.40;99.90;;;;;;5094630;28;20158;-50
2022/10/29 05:20:16;;;;;;;18.63;7.45;;;15.40;99.90;;;;;;5094641;28;20185;-50
2022/10/29 05:22:41;;;;;;;14.20;6.72;;;15.40;99.90;;;;;;5094433;28;20525;-50
2022/10/29 05:25:07;;;;;;;15.63;7.25;;;15.50;99.90;;;;;;5094774;28;20566;-50
2022/10/29 05:27:32;;;;;;;18.05;8.05;;;15.40;99.90;;;;;;5094535;28;20681;-50
2022/10/29 05:29:58;;;;;;;16.80;8.35;;;15.50;99.90;;;;;;5094483;28;20165;-50
2022/10/29 05:32:24;;;;;;;19.85;8.35;;;15.50;99.90;;;;;;5094401;28;20201;-50
2022/10/29 05:34:49;;;;;;;14.25;7.32;;;15.40;99.90;;;;;;5094290;28;20521;-50
2022/10/29 05:37:15;;;;;;;23.20;8.32;;;15.50;99.90;;;;;;5094375;28;20318;-50
2022/10/29 05:39:40;;;;;;;13.38;7.38;;;15.40;99.90;;;;;;5094160;28;20173;-50
2022/10/29 05:42:06;;;;;;;24.08;7.43;;;15.40;99.90;;;;;;5094510;28;20170;-50
2022/10/29 05:44:31;;;;;;;19.63;7.68;;;15.40;99.90;;;;;;5094158;28;20196;-50
2022/10/29 05:46:57;;;;;;;18.10;7.13;;;15.30;99.90;;;;;;5094364;28;20170;-50
2022/10/29 05:49:22;;;;;;;25.17;7.82;;;15.30;99.90;;;;;;5094079;28;20169;-50
2022/10/29 05:51:48;;;;;;;19.45;7.88;;;15.30;99.90;;;;;;5094043;28;20205;-50
2022/10/29 05:54:14;;;;;;;16.33;7.47;;;15.40;99.90;;;;;;5093994;28;20188;-50
2022/10/29 05:56:39;;;;;;;15.38;7.28;;;15.30;99.90;;;;;;5094466;28;20240;-50
2022/10/29 05:59:05;;;;;;;18.23;8.05;;;15.30;99.90;;;;;;5094135;28;20461;-50
2022/10/29 06:01:30;;;;;;;11.43;6.78;;;15.30;99.90;;;;;;5075604;28;20173;-50
2022/10/29 06:03:57;;;;;;;19.20;8.10;;;15.30;99.90;;;;;;5093736;28;20241;-50
2022/10/29 06:06:22;;;;;;;16.40;8.13;;;15.40;99.90;;;;;;5093906;28;20165;-50
2022/10/29 06:08:48;;;;;;;13.05;6.85;;;15.30;99.90;;;;;;5075808;28;20563;-50
2022/10/29 06:11:13;;;;;;;18.60;8.23;;;15.30;99.90;;;;;;5093707;28;20161;-50
2022/10/29 06:13:39;;;;;;;20.70;7.95;;;15.30;99.90;;;;;;5093851;28;20219;-50
2022/10/29 06:16:05;;;;;;;15.23;7.70;;;15.30;99.90;;;;;;5093916;28;20167;-50
2022/10/29 06:18:30;;;;;;;18.85;7.57;;;15.40;99.90;;;;;;5093446;28;20173;-50
2022/10/29 06:20:57;;;;;;;20.27;9.75;;;15.30;99.90;;;;;;5075396;28;20179;-51
2022/10/29 06:23:23;;;;;;;22.65;8.77;;;15.30;99.90;;;;;;5093666;28;20532;-51
2022/10/29 06:25:48;;;;;;;20.92;9.13;;;15.30;99.90;;;;;;5093322;28;20161;-50
2022/10/29 06:28:15;;;;;;;22.88;8.45;;;15.40;99.90;;;;;;5075290;28;20169;-50
2022/10/29 06:30:46;;;;;;;25.80;8.80;;;15.40;99.90;;;;;;5093097;28;20173;-51
2022/10/29 06:33:11;;;;;;;23.98;8.50;;;15.30;99.90;;;;;;5093231;28;20217;-50
2022/10/29 06:35:37;;;;;;;21.00;7.85;;;15.30;99.90;;;;;;5092337;28;20169;-51
2022/10/29 06:38:02;;;;;;;20.45;8.65;;;15.30;99.90;;;;;;5093085;28;20180;-50
2022/10/29 06:40:28;;;;;;;23.40;7.82;;;15.40;99.90;;;;;;5092948;28;20173;-51
2022/10/29 06:43:05;;;;;;;17.60;7.55;;;15.30;99.90;;;;;;5092892;28;20177;-50
2022/10/29 06:45:31;;;;;;;15.98;7.13;;;15.40;99.90;;;;;;5092960;28;20166;-51
2022/10/29 06:47:57;;;;;;;13.50;7.40;;;15.30;99.90;;;;;;5092927;28;20165;-50
2022/10/29 06:50:23;;;;;;;19.85;7.00;;;15.30;99.90;;;;;;5092906;28;20512;-48
2022/10/29 06:53:03;;;;;;;21.60;8.48;;;15.30;99.90;;;;;;5092685;28;20299;-50
2022/10/29 06:55:29;;;;;;;18.80;7.88;;;15.30;99.90;;;;;;5092536;28;20157;-50
2022/10/29 06:58:00;;;;;;;14.98;7.90;;;15.30;99.90;;;;;;5092451;28;20172;-50
2022/10/29 07:00:27;;;;;;;16.38;7.60;;;15.30;99.90;;;;;;5092477;28;20712;-50
2022/10/29 07:02:53;;;;;;;20.77;7.30;;;15.20;99.90;;;;;;5092329;28;20215;-51
2022/10/29 07:05:19;;;;;;;20.38;8.15;;;15.30;99.90;;;;;;5092773;28;20170;-50
2022/10/29 07:07:45;;;;;;;16.23;7.97;;;15.40;99.90;;;;;;5092537;28;20586;-50
2022/10/29 07:10:10;;;;;;;19.08;7.78;;;15.30;99.90;;;;;;5092401;28;20252;-50
2022/10/29 07:12:43;;;;;;;19.08;7.20;;;15.30;99.90;;;;;;5092398;28;20205;-50
2022/10/29 07:15:10;;;;;;;15.80;6.93;;;15.40;99.90;;;;;;5074570;28;20173;-50
2022/10/29 07:17:36;;;;;;;19.23;8.25;;;15.40;99.90;;;;;;5092799;28;20165;-50
2022/10/29 07:20:02;;;;;;;19.30;7.07;;;15.50;99.90;;;;;;5092389;28;20176;-50
2022/10/29 07:22:28;;;;;;;10.77;7.30;;;15.40;99.90;;;;;;5092265;28;20162;-50
2022/10/29 07:24:53;;;;;;;16.02;6.88;;;15.50;99.90;;;;;;5092367;28;20170;-50
2022/10/29 07:27:19;;;;;;;17.73;6.38;;;15.50;99.90;;;;;;5092281;28;20632;-50
2022/10/29 07:29:44;;;;;;;10.48;6.35;;;15.40;99.90;;;;;;5092366;28;20247;-50
2022/10/29 07:32:10;;;;;;;17.38;7.35;;;15.50;99.90;;;;;;5092197;28;20165;-50
2022/10/29 07:34:35;;;;;;;26.77;9.05;;;15.60;99.90;;;;;;5092620;28;20295;-50
2022/10/29 07:37:01;;;;;;;30.75;8.52;;;15.50;99.90;;;;;;5092259;28;20176;-50
2022/10/29 07:39:26;;;;;;;17.23;7.05;;;15.60;99.90;;;;;;5092155;28;20169;-50
2022/10/29 07:41:52;;;;;;;19.35;7.80;;;15.80;99.90;;;;;;5092081;28;20166;-50
2022/10/29 07:44:18;;;;;;;19.08;8.40;;;15.70;99.90;;;;;;5092003;28;20180;-50
2022/10/29 07:46:43;;;;;;;28.55;8.48;;;15.80;99.90;;;;;;5091689;28;20244;-50
2022/10/29 07:49:09;;;;;;;14.75;8.10;;;16.00;99.90;;;;;;5092385;28;20168;-50
2022/10/29 07:51:34;;;;;;;17.73;7.18;;;16.00;99.90;;;;;;5091971;28;20174;-50
2022/10/29 07:54:00;;;;;;;19.67;7.55;;;16.00;99.90;;;;;;5091788;28;20208;-50
2022/10/29 07:56:25;;;;;;;14.98;8.20;;;15.90;99.90;;;;;;5091813;28;20173;-50
2022/10/29 07:58:51;;;;;;;20.70;8.13;;;16.00;99.90;;;;;;5091876;28;20248;-50
2022/10/29 08:01:16;;;;;;;14.60;7.78;;;16.10;99.90;;;;;;5091756;28;20707;-50
2022/10/29 08:03:42;;;;;;;18.00;6.53;;;16.10;99.90;;;;;;5091866;28;20173;-50
2022/10/29 08:06:08;;;;;;;25.67;8.98;;;16.10;99.90;;;;;;5092200;28;20204;-50
2022/10/29 08:08:36;;;;;;;15.13;7.53;;;16.20;99.90;;;;;;5091839;28;20625;-51
2022/10/29 08:11:03;;;;;;;18.55;7.65;;;16.20;99.90;;;;;;5092049;28;20187;-50
2022/10/29 08:13:28;;;;;;;13.68;7.40;;;16.30;99.90;;;;;;5091637;28;20212;-50
2022/10/29 08:15:54;;;;;;;16.38;7.30;;;16.40;99.90;;;;;;5091728;28;20210;-50
2022/10/29 08:18:19;;;;;;;16.42;7.30;;;16.50;99.90;;;;;;5091677;28;20169;-50
2022/10/29 08:20:45;;;;;;;12.07;7.07;;;16.40;99.90;;;;;;5091753;28;20655;-50
2022/10/29 08:23:12;;;;;;;19.77;8.70;;;16.60;99.90;;;;;;5091683;28;20166;-50
2022/10/29 08:25:40;;;;;;;15.88;7.28;;;16.50;99.90;;;;;;5092196;28;20169;-50
2022/10/29 08:28:07;;;;;;;16.20;7.40;;;16.60;99.90;;;;;;5091918;28;20170;-50
2022/10/29 08:30:33;;;;;;;16.95;7.55;;;16.70;99.90;;;;;;5091610;28;20172;-50
2022/10/29 08:32:58;;;;;;;13.38;6.75;;;16.90;99.90;;;;;;5091517;28;20571;-50
2022/10/29 08:35:24;;;;;;;16.17;7.10;;;17.00;99.90;;;;;;5091459;28;20647;-50
2022/10/29 08:37:50;;;;;;;15.73;7.00;;;17.10;99.90;;;;;;5091507;28;20532;-50
2022/10/29 08:40:37;;;;;;;13.77;7.70;;;17.00;99.90;;;;;;5091674;28;20212;-50
2022/10/29 08:43:27;;;;;;;14.73;6.65;;;17.10;99.90;;;;;;5091441;28;20161;-50
2022/10/29 08:45:54;;;;;;;15.38;6.90;;;17.30;99.90;;;;;;5091404;28;20173;-50
2022/10/29 08:48:50;;;;;;;17.40;7.53;;;17.60;99.90;;;;;;5091366;28;20629;-51
2022/10/29 08:51:32;;;;;;;17.50;7.50;;;17.70;99.90;;;;;;5091424;28;20177;-50
2022/10/29 08:53:58;;;;;;;20.02;7.15;;;17.80;99.90;;;;;;5074609;28;20696;-50
2022/10/29 08:56:31;;;;;;;16.67;7.40;;;17.80;99.90;;;;;;5091640;28;20251;-50
2022/10/29 08:59:13;;;;;;;14.40;7.43;;;17.80;99.90;;;;;;5092890;28;20173;-50
2022/10/29 09:01:39;;;;;;;18.17;6.93;;;17.70;99.90;;;;;;5095309;28;20742;-50
2022/10/29 09:04:34;;;;;;;17.00;6.72;;;17.80;99.90;;;;;;5095514;28;20177;-50
2022/10/29 09:07:28;;;;;;;15.23;7.50;;;17.70;99.90;;;;;;5095137;28;20166;-50
2022/10/29 09:10:15;;;;;;;20.98;7.20;;;17.80;99.90;;;;;;5071200;28;20181;-50
2022/10/29 09:12:54;;;;;;;15.15;7.10;;;17.90;99.90;;;;;;5094749;28;20212;-50
2022/10/29 09:15:33;;;;;;;15.25;6.80;;;18.00;99.90;;;;;;5094801;28;20169;-50
2022/10/29 09:18:09;;;;;;;15.05;6.30;;;18.20;99.90;;;;;;5094661;28;20165;-50
2022/10/29 09:20:46;;;;;;;23.63;6.38;;;18.50;99.90;;;;;;5095024;28;20169;-50
2022/10/29 09:23:44;;;;;;;14.55;6.03;;;18.60;99.90;;;;;;5094831;28;20160;-50
2022/10/29 09:26:13;;;;;;;18.23;6.68;;;18.70;99.90;;;;;;5094587;28;20227;-50
2022/10/29 09:28:51;;;;;;;16.35;6.05;;;18.90;99.90;;;;;;5094850;28;20162;-50
2022/10/29 09:31:22;;;;;;;16.75;6.13;;;19.00;99.90;;;;;;5094467;28;20173;-50
2022/10/29 09:33:51;;;;;;;17.27;5.78;;;18.90;99.90;;;;;;5094323;28;20668;-50
2022/10/29 09:36:19;;;;;;;10.82;6.07;;;18.90;99.90;;;;;;5094254;28;20176;-50
2022/10/29 09:39:08;;;;;;;15.95;6.50;;;19.00;99.90;;;;;;5094160;28;20594;-50
2022/10/29 09:41:35;;;;;;;13.07;5.85;;;19.00;99.90;;;;;;5094472;28;20165;-50
2022/10/29 09:44:16;;;;;;;16.85;6.32;;;18.80;99.90;;;;;;5094171;28;20633;-50
2022/10/29 09:47:00;;;;;;;14.93;6.35;;;19.00;99.90;;;;;;5094181;28;20573;-50
2022/10/29 09:49:45;;;;;;;15.23;6.05;;;18.90;99.90;;;;;;5094026;28;20237;-50
2022/10/29 09:52:18;;;;;;;25.00;9.73;;;18.90;99.90;;;;;;5094142;28;20169;-50
2022/10/29 09:54:44;;;;;;;17.95;6.82;;;19.00;99.90;;;;;;5094186;28;20212;-50
2022/10/29 09:57:28;;;;;;;20.77;6.75;;;19.10;99.90;;;;;;5076322;28;20166;-50
2022/10/29 09:59:57;;;;;;;13.98;6.35;;;19.00;99.90;;;;;;5093810;28;20213;-50
2022/10/29 10:02:55;;;;;;;26.63;11.98;;;19.10;99.90;;;;;;5093827;28;20648;-50
2022/10/29 10:05:27;;;;;;;17.52;6.00;;;19.10;99.90;;;;;;5093712;28;20185;-50
2022/10/29 10:08:06;;;;;;;23.70;7.82;;;19.10;99.90;;;;;;5093623;28;20207;-50
2022/10/29 10:10:33;;;;;;;13.60;6.30;;;19.00;99.90;;;;;;5093939;28;20563;-50
2022/10/29 10:13:05;;;;;;;13.40;6.43;;;18.90;99.90;;;;;;5093829;28;20232;-50
2022/10/29 10:15:35;;;;;;;20.33;7.30;;;18.80;99.90;;;;;;5093529;28;20169;-50
2022/10/29 10:18:05;;;;;;;20.45;7.88;;;18.80;99.90;;;;;;5093504;28;20157;-50
2022/10/29 10:20:41;;;;;;;17.08;8.25;;;18.80;99.90;;;;;;5093425;28;20166;-50
2022/10/29 10:23:26;;;;;;;19.75;8.60;;;18.90;99.90;;;;;;5093951;28;20169;-50
2022/10/29 10:25:56;;;;;;;15.38;7.93;;;18.80;99.90;;;;;;5093404;28;20157;-50
2022/10/29 10:28:24;;;;;;;21.58;8.90;;;18.70;99.90;;;;;;5093255;28;20587;-50
2022/10/29 10:31:15;;;;;;;21.00;8.52;;;18.70;99.90;;;;;;5093224;28;20213;-50
2022/10/29 10:33:52;;;;;;;14.60;7.20;;;18.70;99.90;;;;;;5093098;28;20212;-50
2022/10/29 10:36:21;;;;;;;15.88;7.43;;;18.70;99.90;;;;;;5093430;28;20530;-50
2022/10/29 10:38:50;;;;;;;16.25;7.15;;;18.70;99.90;;;;;;5093367;28;20169;-50
2022/10/29 10:41:24;;;;;;;20.23;9.60;;;18.60;99.90;;;;;;5074611;28;20534;-50
2022/10/29 10:43:50;;;;;;;17.52;7.38;;;18.60;99.90;;;;;;5074791;28;20170;-50
2022/10/29 10:46:26;;;;;;;19.02;6.75;;;18.60;99.90;;;;;;5092911;28;20191;-50
2022/10/29 10:49:11;;;;;;;18.92;6.95;;;18.70;99.90;;;;;;5093146;28;20179;-50
2022/10/29 10:51:38;;;;;;;18.38;7.05;;;18.70;99.90;;;;;;5093106;28;20161;-50
2022/10/29 10:54:30;;;;;;;26.05;9.18;;;18.70;99.90;;;;;;5091600;28;20231;-50
2022/10/29 10:57:16;;;;;;;20.00;8.10;;;18.70;99.90;;;;;;5092315;28;20557;-50
2022/10/29 11:00:08;;;;;;;16.17;7.53;;;18.70;99.90;;;;;;5092108;28;20209;-50
2022/10/29 11:03:03;;;;;;;17.77;9.02;;;18.70;99.90;;;;;;5093167;28;20599;-50
2022/10/29 11:05:34;;;;;;;20.05;9.88;;;18.70;99.90;;;;;;5092489;28;20254;-50
2022/10/29 11:08:12;;;;;;;22.52;9.18;;;18.90;99.90;;;;;;5092479;28;20238;-50
2022/10/29 11:10:57;;;;;;;17.80;8.10;;;19.00;99.90;;;;;;5092449;28;20161;-50
2022/10/29 11:13:29;;;;;;;18.98;7.25;;;19.20;99.90;;;;;;5092096;28;20197;-50
2022/10/29 11:16:10;;;;;;;14.70;7.15;;;19.40;99.90;;;;;;5092405;28;20535;-50
2022/10/29 11:19:03;;;;;;;16.10;7.05;;;19.50;99.90;;;;;;5092008;28;20169;-50
2022/10/29 11:21:41;;;;;;;17.45;6.70;;;19.60;99.90;;;;;;5091230;28;20229;-50
2022/10/29 11:24:22;;;;;;;15.55;7.20;;;19.50;99.90;;;;;;5092320;28;20161;-50
2022/10/29 11:27:00;;;;;;;18.65;8.02;;;19.60;99.90;;;;;;5092162;28;20169;-50
2022/10/29 11:29:39;;;;;;;19.67;7.70;;;19.70;99.90;;;;;;5092460;28;20173;-50
2022/10/29 11:32:32;;;;;;;25.05;11.52;;;19.80;99.90;;;;;;5092389;28;20206;-50
2022/10/29 11:35:03;;;;;;;85.63;33.10;;;19.90;99.90;;;;;;5092167;28;20204;-50
2022/10/29 11:37:41;;;;;;;614.58;253.00;;;20.00;99.90;;;;;;5092341;28;20210;-50
2022/10/29 11:40:35;;;;;;;30.33;15.63;;;20.10;99.90;;;;;;5092441;28;20651;-50
2022/10/29 11:43:02;;;;;;;23.65;11.52;;;20.30;99.90;;;;;;5091866;28;20264;-50
2022/10/29 11:45:38;;;;;;;21.30;10.48;;;20.30;99.90;;;;;;5092278;28;20172;-50
2022/10/29 11:48:38;;;;;;;15.38;6.85;;;20.40;99.90;;;;;;5091539;28;20252;-50
2022/10/29 11:51:32;;;;;;;16.27;7.28;;;20.50;99.90;;;;;;5091959;28;20158;-49
2022/10/29 11:54:25;;;;;;;24.88;9.63;;;20.60;99.90;;;;;;5091869;28;20209;-49
2022/10/29 11:56:57;;;;;;;13.55;6.90;;;20.50;99.90;;;;;;5091944;28;20161;-50
2022/10/29 11:59:58;;;;;;;18.40;6.70;;;20.60;99.90;;;;;;5091650;28;20210;-50
2022/10/29 12:02:45;;;;;;;17.88;7.32;;;20.50;99.90;;;;;;5091834;28;20224;-50
2022/10/29 12:05:33;;;;;;;19.20;8.20;;;20.60;99.90;;;;;;5091738;28;20157;-50
2022/10/29 12:08:26;;;;;;;21.92;8.80;;;20.60;99.90;;;;;;5091653;28;20535;-50
2022/10/29 12:11:10;;;;;;;14.40;7.07;;;20.70;99.90;;;;;;5091693;28;20640;-50
2022/10/29 12:13:42;;;;;;;17.60;6.78;;;20.80;99.90;;;;;;5091890;28;20205;-50
2022/10/29 12:16:44;;;;;;;25.40;9.60;;;20.80;99.90;;;;;;5091933;28;20502;-50
2022/10/29 12:19:36;;;;;;;14.25;7.32;;;21.00;99.90;;;;;;5091530;28;20252;-50
2022/10/29 12:22:36;;;;;;;18.80;8.35;;;21.10;99.90;;;;;;5091361;28;20173;-50
2022/10/29 12:25:20;;;;;;;16.50;6.25;;;21.30;99.90;;;;;;5091902;28;20274;-50
2022/10/29 12:28:02;;;;;;;17.88;7.75;;;21.30;99.90;;;;;;5091620;28;20165;-50
2022/10/29 12:30:34;;;;;;;18.30;6.38;;;21.30;99.90;;;;;;5091721;28;20193;-50
2022/10/29 12:33:14;;;;;;;16.00;5.88;;;21.30;99.90;;;;;;5091691;28;20215;-50
2022/10/29 12:35:57;;;;;;;12.30;6.10;;;21.30;99.90;;;;;;5095401;28;20180;-50
2022/10/29 12:38:42;;;;;;;16.25;6.45;;;21.20;99.90;;;;;;5095711;28;20167;-50
2022/10/29 12:41:35;;;;;;;19.38;6.50;;;21.10;99.90;;;;;;5095388;28;20248;-50
2022/10/29 12:44:29;;;;;;;15.48;6.03;;;21.20;99.90;;;;;;5094556;28;20161;-49
2022/10/29 12:47:09;;;;;;;15.40;6.60;;;21.30;99.90;;;;;;5074695;28;20241;-49
2022/10/29 12:50:06;;;;;;;21.02;6.18;;;21.20;99.90;;;;;;5095364;28;20168;-49
2022/10/29 12:52:51;;;;;;;17.90;6.80;;;21.20;99.90;;;;;;5095046;28;20200;-49
2022/10/29 12:55:18;;;;;;;14.32;5.65;;;21.20;99.90;;;;;;5095025;28;20177;-50
2022/10/29 12:57:43;;;;;;;17.80;6.57;;;21.30;99.90;;;;;;5094662;28;20620;-50
2022/10/29 13:00:26;;;;;;;27.67;14.70;;;21.20;99.90;;;;;;5094759;28;20243;-50